• Join FlightAware (Why Join?)
  • Login
  • US Flag 
09:48PM EDT


 

Airport Tracker/Info


-or-


 

Live Flight TrackerFlight Track Log ✈ LBQ652 ✈ 03-May-2013 ✈ KRDG - KLUK

Flight Track Log - Related Links

Times and Time Zones

All times are in EDT time to prevent confusion due to time zone crossing. See the LBQ652 flight status page for this flight to view local times or setup timezone preferences in your user account.

Time Position Orientation Groundspeed Altitude Reporting Facility
EDT Latitude Longitude Course Direction KTS MPH feet Rate Location/Type
11:36PM 40.3572 -76.0197 259° West 196 226 5,500  Level New York Center
11:37PM 40.3636 -76.1100 275° West 246 283 7,000 1,740 Climbing New York Center
11:38PM 40.3500 -76.2289 261° West 289 333 8,900 1,680 Climbing New York Center
11:39PM 40.3392 -76.3261 262° West 304 350 10,400 1,680 Climbing New York Center
11:40PM 40.5224 -76.4727 288° West  Level FlightAware Approximate
11:40PM 40.3253 -76.4447 261° West 304 350 12,300  Level New York Center
11:41PM 40.5070 -76.5811 259° West  Level Estimated
11:41PM 40.3144 -76.5392 261° West 309 356 13,800  Level New York Center
11:42PM 40.2833 -76.6617 252° West 315 362 15,600 1,740 Climbing New York Center
11:43PM 40.2569 -76.7683 252° West 315 362 17,300 1,380 Climbing New York Center
11:44PM 40.2306 -76.8803 253° West 320 368 18,500 1,320 Climbing New York Center
11:45PM 40.2039 -76.9919 253° West 320 368 20,000 1,440 Climbing New York Center
11:46PM 40.1747 -77.1089 252° West 326 375 21,400 1,440 Climbing New York Center
11:47PM 40.1494 -77.2264 254° West 338 389 22,900 1,380 Climbing New York Center
11:49PM 40.0875 -77.4867 253° West 346 398 25,900 1,260 Climbing Cleveland Center
11:50PM 40.0594 -77.6019 252° West 346 398 27,100 1,200 Climbing Cleveland Center
11:51PM 40.0311 -77.7169 252° West 346 398 28,300 1,140 Climbing Cleveland Center
11:52PM 40.0028 -77.8347 253° West 346 398 29,400 840 Climbing Cleveland Center
11:53PM 39.9722 -77.9497 251° West 346 398 30,000 300 Climbing Cleveland Center
11:54PM 39.9606 -78.0803 263° West 358 412 30,000  Level Cleveland Center
11:55PM 39.9467 -78.2164 262° West 370 426 30,000  Level Cleveland Center
11:56PM 39.9267 -78.3578 260° West 387 445 30,000  Level Cleveland Center
11:57PM 39.9144 -78.4936 263° West 392 451 30,000  Level Cleveland Center
11:58PM 39.8983 -78.6319 261° West 392 451 30,000  Level Cleveland Center
11:59PM 39.8817 -78.7706 261° West 392 451 30,000  Level Cleveland Center
12:00AM 39.8650 -78.9061 261° West 392 451 30,000  Level Cleveland Center
12:01AM 39.8544 -79.0336 264° West 392 451 30,000  Level Cleveland Center
12:02AM 39.8394 -79.1717 262° West 392 451 30,000  Level Cleveland Center
12:03AM 39.8225 -79.3100 261° West 392 451 30,000  Level Cleveland Center
12:04AM 39.8072 -79.4508 262° West 392 451 30,000  Level Cleveland Center
12:05AM 39.7897 -79.5861 260° West 387 445 30,000  Level Cleveland Center
12:06AM 39.7742 -79.7242 262° West 387 445 30,000  Level Cleveland Center
12:07AM 39.7583 -79.8619 262° West 387 445 30,000  Level Cleveland Center
12:08AM 39.7406 -80.0000 261° West 387 445 30,000  Level Cleveland Center
12:09AM 39.7244 -80.1350 261° West 387 445 30,000  Level Cleveland Center
12:10AM 39.7083 -80.2728 261° West 387 445 30,000  Level Cleveland Center
12:11AM 39.6897 -80.4103 260° West 392 451 30,000  Level Cleveland Center
12:13AM 39.6553 -80.6522 260° West 386 444 30,000  Level Indianapolis Center
12:14AM 39.6383 -80.7883 261° West 383 441 30,000  Level Indianapolis Center
12:15AM 39.6197 -80.9247 260° West 384 442 30,000  Level Indianapolis Center
12:16AM 39.6019 -81.0617 260° West 385 443 30,000  Level Indianapolis Center
12:17AM 39.5831 -81.1975 260° West 385 443 30,000  Level Indianapolis Center
12:18AM 39.5647 -81.3364 260° West 391 450 30,000  Level Indianapolis Center
12:19AM 39.5458 -81.4719 260° West 385 443 30,000  Level Indianapolis Center
12:20AM 39.5281 -81.6100 261° West 390 449 30,000  Level Indianapolis Center
12:21AM 39.5050 -81.7725 260° West 384 442 30,000  Level Indianapolis Center
12:22AM 39.4853 -81.9097 259° West 388 447 30,000  Level Indianapolis Center
12:23AM 39.4658 -82.0467 260° West 388 447 30,000  Level Indianapolis Center
12:24AM 39.4467 -82.1811 260° West 386 444 30,000  Level Indianapolis Center
12:25AM 39.4272 -82.3200 260° West 389 448 30,000  Level Indianapolis Center
12:26AM 39.4075 -82.4569 259° West 389 448 30,000 -420 Level Indianapolis Center
12:27AM 39.3850 -82.6028 259° West 400 460 29,200 -1,380 Descending Indianapolis Center
12:28AM 39.3636 -82.7481 259° West 407 468 27,300 -1,920 Descending Indianapolis Center
12:29AM 39.3422 -82.8936 259° West 409 471 25,400 -1,920 Descending Indianapolis Center
12:30AM 39.3206 -83.0400 259° West 409 471 23,500 -1,920 Descending Indianapolis Center
12:31AM 39.2981 -83.1856 259° West 408 470 21,600 -1,860 Descending Indianapolis Center
12:32AM 39.2775 -83.3219 259° West 387 445 19,800 -1,740 Descending Indianapolis Center
12:33AM 39.2561 -83.4508 258° West 367 422 18,100 -1,620 Descending Indianapolis Center
12:34AM 39.2389 -83.5742 260° West 348 400 16,600 -1,560 Descending Indianapolis Center
12:35AM 39.2197 -83.6933 258° West 338 389 15,000 -1,560 Descending Indianapolis Center
12:36AM 39.2014 -83.8103 259° West 329 379 13,500 -1,560 Descending Indianapolis Center
12:37AM 39.1828 -83.9275 258° West 329 379 11,900 -1,500 Descending Indianapolis Center
12:38AM 39.1675 -84.0236 258° West 327 376 10,500 -2,040 Descending Indianapolis Center
12:39AM 39.1503 -84.1292 258° West 303 349 7,900 -2,760 Descending Indianapolis Center
12:40AM 39.1425 -84.2267 264° West 279 321 5,000 -2,400 Descending Indianapolis Center
12:41AM 39.1442 -84.3164 271° West 270 311 3,100 -1,920 Descending Indianapolis Center
12:43AM 39.1000 -84.4167 270° West  Level FlightAware Approximate
12:50AM 39.1033 -84.4186 270° West  Level Estimated
12:51AM 39.1000 -84.4167 270° West  Level FlightAware Approximate